sensor_id;sensor_type;location;lat;lon;timestamp;pressure;altitude;pressure_sealevel;temperature;humidity
32320;BME280;19080;51.750;5.888;2023-07-08T00:00:54;101456.69;;;20.92;80.81
32320;BME280;19080;51.750;5.888;2023-07-08T00:03:21;101425.56;;;20.74;81.37
32320;BME280;19080;51.750;5.888;2023-07-08T00:05:50;101443.25;;;20.89;81.33
32320;BME280;19080;51.750;5.888;2023-07-08T00:08:20;101450.50;;;20.86;80.89
32320;BME280;19080;51.750;5.888;2023-07-08T00:10:47;101438.03;;;20.80;81.42
32320;BME280;19080;51.750;5.888;2023-07-08T00:13:14;101450.44;;;20.89;81.10
32320;BME280;19080;51.750;5.888;2023-07-08T00:15:40;101385.53;;;20.49;81.25
32320;BME280;19080;51.750;5.888;2023-07-08T00:18:12;101420.31;;;20.65;82.05
32320;BME280;19080;51.750;5.888;2023-07-08T00:20:42;101366.81;;;20.36;81.85
32320;BME280;19080;51.750;5.888;2023-07-08T00:23:10;101384.53;;;20.54;81.12
32320;BME280;19080;51.750;5.888;2023-07-08T00:25:37;101443.38;;;20.82;81.20
32320;BME280;19080;51.750;5.888;2023-07-08T00:28:09;101444.44;;;20.74;81.59
32320;BME280;19080;51.750;5.888;2023-07-08T00:30:36;101450.66;;;20.79;81.56
32320;BME280;19080;51.750;5.888;2023-07-08T00:33:04;101435.63;;;20.63;82.42
32320;BME280;19080;51.750;5.888;2023-07-08T00:35:37;101347.38;;;20.18;83.45
32320;BME280;19080;51.750;5.888;2023-07-08T00:43:23;101429.53;;;20.52;85.05
32320;BME280;19080;51.750;5.888;2023-07-08T00:46:00;101428.72;;;20.47;85.44
32320;BME280;19080;51.750;5.888;2023-07-08T00:48:34;101447.53;;;20.50;86.28
32320;BME280;19080;51.750;5.888;2023-07-08T00:51:01;101423.41;;;20.42;86.46
32320;BME280;19080;51.750;5.888;2023-07-08T00:53:32;101433.22;;;20.46;86.94
32320;BME280;19080;51.750;5.888;2023-07-08T00:56:16;101415.38;;;20.35;87.12
32320;BME280;19080;51.750;5.888;2023-07-08T00:58:50;101357.50;;;20.02;88.00
32320;BME280;19080;51.750;5.888;2023-07-08T01:01:19;101351.38;;;19.92;88.83
32320;BME280;19080;51.750;5.888;2023-07-08T01:04:00;101413.75;;;20.25;89.46
32320;BME280;19080;51.750;5.888;2023-07-08T01:06:30;101420.94;;;20.26;90.28
32320;BME280;19080;51.750;5.888;2023-07-08T01:09:02;101424.53;;;20.25;89.83
32320;BME280;19080;51.750;5.888;2023-07-08T01:11:33;101421.78;;;20.28;90.10
32320;BME280;19080;51.750;5.888;2023-07-08T01:14:02;101342.56;;;19.81;90.13
32320;BME280;19080;51.750;5.888;2023-07-08T01:16:33;101415.50;;;20.29;89.32
32320;BME280;19080;51.750;5.888;2023-07-08T01:19:01;101411.88;;;20.30;88.85
32320;BME280;19080;51.750;5.888;2023-07-08T01:24:02;101424.28;;;20.43;89.29
32320;BME280;19080;51.750;5.888;2023-07-08T01:26:33;101405.47;;;20.37;88.83
32320;BME280;19080;51.750;5.888;2023-07-08T01:29:03;101424.09;;;20.54;88.95
32320;BME280;19080;51.750;5.888;2023-07-08T01:31:30;101422.31;;;20.54;87.95
32320;BME280;19080;51.750;5.888;2023-07-08T01:33:57;101413.28;;;20.55;88.06
32320;BME280;19080;51.750;5.888;2023-07-08T01:36:25;101329.56;;;20.07;87.60
32320;BME280;19080;51.750;5.888;2023-07-08T01:38:52;101411.34;;;20.63;87.37
32320;BME280;19080;51.750;5.888;2023-07-08T01:41:19;101377.56;;;20.41;87.35
32320;BME280;19080;51.750;5.888;2023-07-08T01:43:46;101391.75;;;20.52;87.44
32320;BME280;19080;51.750;5.888;2023-07-08T01:46:20;101403.38;;;20.57;86.98
32320;BME280;19080;51.750;5.888;2023-07-08T01:48:53;101338.22;;;20.28;87.29
32320;BME280;19080;51.750;5.888;2023-07-08T01:51:20;101409.56;;;20.64;87.78
32320;BME280;19080;51.750;5.888;2023-07-08T01:53:48;101348.94;;;20.31;87.31
32320;BME280;19080;51.750;5.888;2023-07-08T01:56:15;101373.00;;;20.44;87.46
32320;BME280;19080;51.750;5.888;2023-07-08T01:58:42;101364.13;;;20.36;87.88
32320;BME280;19080;51.750;5.888;2023-07-08T02:01:09;101296.59;;;19.92;88.35
32320;BME280;19080;51.750;5.888;2023-07-08T02:03:36;101361.47;;;20.35;88.88
32320;BME280;19080;51.750;5.888;2023-07-08T02:06:05;101382.97;;;20.41;89.05
32320;BME280;19080;51.750;5.888;2023-07-08T02:08:32;101358.06;;;20.24;89.94
32320;BME280;19080;51.750;5.888;2023-07-08T02:11:00;101376.81;;;20.31;90.26
32320;BME280;19080;51.750;5.888;2023-07-08T02:13:28;101294.09;;;19.78;90.99
32320;BME280;19080;51.750;5.888;2023-07-08T02:15:55;101395.69;;;20.30;91.81
32320;BME280;19080;51.750;5.888;2023-07-08T02:18:22;101352.09;;;20.03;91.90
32320;BME280;19080;51.750;5.888;2023-07-08T02:20:52;101371.81;;;20.07;93.55
32320;BME280;19080;51.750;5.888;2023-07-08T02:23:19;101306.75;;;19.73;93.67
32320;BME280;19080;51.750;5.888;2023-07-08T02:25:53;101379.84;;;20.10;93.97
32320;BME280;19080;51.750;5.888;2023-07-08T02:28:20;101379.88;;;20.08;94.20
32320;BME280;19080;51.750;5.888;2023-07-08T02:30:47;101295.38;;;19.54;94.46
32320;BME280;19080;51.750;5.888;2023-07-08T02:33:14;101377.44;;;19.90;95.86
32320;BME280;19080;51.750;5.888;2023-07-08T02:35:44;101350.72;;;19.75;96.82
32320;BME280;19080;51.750;5.888;2023-07-08T02:38:12;101291.13;;;19.35;97.82
32320;BME280;19080;51.750;5.888;2023-07-08T02:40:40;101362.53;;;19.66;98.84
32320;BME280;19080;51.750;5.888;2023-07-08T02:43:06;101358.19;;;19.55;100.00
32320;BME280;19080;51.750;5.888;2023-07-08T02:45:33;101360.13;;;19.42;100.00
32320;BME280;19080;51.750;5.888;2023-07-08T02:48:01;101336.09;;;19.25;100.00
32320;BME280;19080;51.750;5.888;2023-07-08T02:50:27;101349.56;;;19.25;100.00
32320;BME280;19080;51.750;5.888;2023-07-08T02:52:54;101348.63;;;19.28;100.00
32320;BME280;19080;51.750;5.888;2023-07-08T02:55:21;101354.97;;;19.22;100.00
32320;BME280;19080;51.750;5.888;2023-07-08T02:57:49;101272.19;;;18.73;100.00
32320;BME280;19080;51.750;5.888;2023-07-08T03:00:15;101341.78;;;19.04;100.00
32320;BME280;19080;51.750;5.888;2023-07-08T03:02:42;101353.41;;;19.06;100.00
32320;BME280;19080;51.750;5.888;2023-07-08T03:05:09;101360.66;;;18.99;100.00
32320;BME280;19080;51.750;5.888;2023-07-08T03:07:35;101348.25;;;18.86;100.00
32320;BME280;19080;51.750;5.888;2023-07-08T03:10:02;101386.66;;;19.00;100.00
32320;BME280;19080;51.750;5.888;2023-07-08T03:12:30;101294.84;;;18.48;100.00
32320;BME280;19080;51.750;5.888;2023-07-08T03:14:56;101262.81;;;18.25;100.00
32320;BME280;19080;51.750;5.888;2023-07-08T03:17:23;101367.13;;;18.81;100.00
32320;BME280;19080;51.750;5.888;2023-07-08T03:19:50;101364.47;;;18.80;100.00
32320;BME280;19080;51.750;5.888;2023-07-08T03:22:17;101373.41;;;18.82;100.00
32320;BME280;19080;51.750;5.888;2023-07-08T03:24:44;101385.91;;;18.86;100.00
32320;BME280;19080;51.750;5.888;2023-07-08T03:27:17;101373.50;;;18.71;100.00
32320;BME280;19080;51.750;5.888;2023-07-08T03:29:47;101379.78;;;18.73;100.00
32320;BME280;19080;51.750;5.888;2023-07-08T03:32:13;101349.41;;;18.59;100.00
32320;BME280;19080;51.750;5.888;2023-07-08T03:34:40;101366.31;;;18.75;100.00
32320;BME280;19080;51.750;5.888;2023-07-08T03:37:08;101275.50;;;18.08;100.00
32320;BME280;19080;51.750;5.888;2023-07-08T03:39:35;101359.25;;;18.63;100.00
32320;BME280;19080;51.750;5.888;2023-07-08T03:42:02;101375.38;;;18.65;100.00
32320;BME280;19080;51.750;5.888;2023-07-08T03:44:30;101284.38;;;18.19;100.00
32320;BME280;19080;51.750;5.888;2023-07-08T03:46:58;101378.03;;;18.66;100.00
32320;BME280;19080;51.750;5.888;2023-07-08T03:49:25;101361.06;;;18.61;100.00
32320;BME280;19080;51.750;5.888;2023-07-08T03:51:54;101343.13;;;18.57;100.00
32320;BME280;19080;51.750;5.888;2023-07-08T03:54:23;101352.06;;;18.65;100.00
32320;BME280;19080;51.750;5.888;2023-07-08T03:56:52;101379.66;;;18.85;100.00
32320;BME280;19080;51.750;5.888;2023-07-08T03:59:22;101381.44;;;18.87;100.00
32320;BME280;19080;51.750;5.888;2023-07-08T04:01:49;101385.06;;;18.82;100.00
32320;BME280;19080;51.750;5.888;2023-07-08T04:04:16;101379.69;;;18.82;100.00
32320;BME280;19080;51.750;5.888;2023-07-08T04:06:44;101310.97;;;18.46;100.00
32320;BME280;19080;51.750;5.888;2023-07-08T04:09:12;101388.53;;;18.94;100.00
32320;BME280;19080;51.750;5.888;2023-07-08T04:11:39;101384.97;;;18.92;100.00
32320;BME280;19080;51.750;5.888;2023-07-08T04:14:10;101368.00;;;18.85;100.00
32320;BME280;19080;51.750;5.888;2023-07-08T04:19:14;101396.47;;;19.06;100.00
32320;BME280;19080;51.750;5.888;2023-07-08T04:21:43;101365.19;;;18.96;100.00
32320;BME280;19080;51.750;5.888;2023-07-08T04:24:11;101386.50;;;19.11;100.00
32320;BME280;19080;51.750;5.888;2023-07-08T04:26:39;101305.34;;;18.74;100.00
32320;BME280;19080;51.750;5.888;2023-07-08T04:29:16;101382.88;;;19.15;100.00
32320;BME280;19080;51.750;5.888;2023-07-08T04:31:43;101389.19;;;19.12;100.00
32320;BME280;19080;51.750;5.888;2023-07-08T04:34:10;101374.97;;;19.03;100.00
32320;BME280;19080;51.750;5.888;2023-07-08T04:36:37;101378.47;;;19.08;100.00
32320;BME280;19080;51.750;5.888;2023-07-08T04:39:05;101387.38;;;19.14;100.00
32320;BME280;19080;51.750;5.888;2023-07-08T04:41:33;101364.09;;;19.10;100.00
32320;BME280;19080;51.750;5.888;2023-07-08T04:44:00;101401.56;;;19.27;100.00
32320;BME280;19080;51.750;5.888;2023-07-08T04:46:33;101398.81;;;19.33;100.00
32320;BME280;19080;51.750;5.888;2023-07-08T04:49:05;101388.16;;;19.24;100.00
32320;BME280;19080;51.750;5.888;2023-07-08T04:51:32;101370.16;;;19.29;100.00
32320;BME280;19080;51.750;5.888;2023-07-08T04:53:59;101306.09;;;18.88;100.00
32320;BME280;19080;51.750;5.888;2023-07-08T04:56:36;101320.25;;;19.04;100.00
32320;BME280;19080;51.750;5.888;2023-07-08T04:59:04;101367.38;;;19.35;100.00
32320;BME280;19080;51.750;5.888;2023-07-08T05:01:31;101396.81;;;19.52;100.00
32320;BME280;19080;51.750;5.888;2023-07-08T05:03:58;101395.78;;;19.62;100.00
32320;BME280;19080;51.750;5.888;2023-07-08T05:06:26;101377.00;;;19.58;100.00
32320;BME280;19080;51.750;5.888;2023-07-08T05:08:53;101343.03;;;19.44;100.00
32320;BME280;19080;51.750;5.888;2023-07-08T05:11:19;101383.97;;;19.72;100.00
32320;BME280;19080;51.750;5.888;2023-07-08T05:13:46;101369.56;;;19.75;100.00
32320;BME280;19080;51.750;5.888;2023-07-08T05:16:13;101373.94;;;19.83;100.00
32320;BME280;19080;51.750;5.888;2023-07-08T05:18:40;101372.00;;;19.93;100.00
32320;BME280;19080;51.750;5.888;2023-07-08T05:21:08;101355.00;;;19.88;100.00
32320;BME280;19080;51.750;5.888;2023-07-08T05:23:35;101364.72;;;20.00;100.00
32320;BME280;19080;51.750;5.888;2023-07-08T05:26:03;101343.25;;;19.94;100.00
32320;BME280;19080;51.750;5.888;2023-07-08T05:28:30;101354.63;;;20.12;100.00
32320;BME280;19080;51.750;5.888;2023-07-08T05:30:57;101350.97;;;20.17;100.00
32320;BME280;19080;51.750;5.888;2023-07-08T05:33:27;101381.25;;;20.34;100.00
32320;BME280;19080;51.750;5.888;2023-07-08T05:35:54;101357.91;;;20.33;100.00
32320;BME280;19080;51.750;5.888;2023-07-08T05:38:21;101366.72;;;20.45;100.00
32320;BME280;19080;51.750;5.888;2023-07-08T05:40:54;101382.94;;;20.92;100.00
32320;BME280;19080;51.750;5.888;2023-07-08T05:43:21;101357.50;;;21.03;100.00
32320;BME280;19080;51.750;5.888;2023-07-08T05:45:48;101387.91;;;21.59;100.00
32320;BME280;19080;51.750;5.888;2023-07-08T05:48:36;101375.38;;;21.95;96.67
32320;BME280;19080;51.750;5.888;2023-07-08T05:51:02;101382.50;;;22.38;91.92
32320;BME280;19080;51.750;5.888;2023-07-08T05:53:29;101371.84;;;22.64;86.55
32320;BME280;19080;51.750;5.888;2023-07-08T05:55:56;101377.31;;;22.97;85.50
32320;BME280;19080;51.750;5.888;2023-07-08T05:58:23;101345.69;;;22.99;80.48
32320;BME280;19080;51.750;5.888;2023-07-08T06:00:56;101340.69;;;23.46;77.36
32320;BME280;19080;51.750;5.888;2023-07-08T06:03:25;101387.00;;;23.98;73.43
32320;BME280;19080;51.750;5.888;2023-07-08T06:05:52;101342.72;;;23.98;73.16
32320;BME280;19080;51.750;5.888;2023-07-08T06:08:19;101368.91;;;24.53;67.53
32320;BME280;19080;51.750;5.888;2023-07-08T06:10:46;101390.16;;;25.18;64.77
32320;BME280;19080;51.750;5.888;2023-07-08T06:13:13;101370.53;;;25.10;64.87
32320;BME280;19080;51.750;5.888;2023-07-08T06:15:41;101346.84;;;24.62;65.05
32320;BME280;19080;51.750;5.888;2023-07-08T06:18:08;101380.16;;;24.67;66.06
32320;BME280;19080;51.750;5.888;2023-07-08T06:20:35;101380.91;;;24.73;66.16
32320;BME280;19080;51.750;5.888;2023-07-08T06:23:02;101324.56;;;24.53;66.19
32320;BME280;19080;51.750;5.888;2023-07-08T06:25:29;101394.75;;;25.16;64.78
32320;BME280;19080;51.750;5.888;2023-07-08T06:27:56;101383.53;;;25.25;65.39
32320;BME280;19080;51.750;5.888;2023-07-08T06:30:23;101406.69;;;25.60;61.43
32320;BME280;19080;51.750;5.888;2023-07-08T06:32:50;101373.81;;;25.43;63.61
32320;BME280;19080;51.750;5.888;2023-07-08T06:35:17;101400.63;;;25.77;62.76
32320;BME280;19080;51.750;5.888;2023-07-08T06:37:44;101373.78;;;25.91;60.95
32320;BME280;19080;51.750;5.888;2023-07-08T06:40:11;101381.47;;;26.02;60.17
32320;BME280;19080;51.750;5.888;2023-07-08T06:42:38;101391.44;;;26.47;59.53
32320;BME280;19080;51.750;5.888;2023-07-08T06:45:18;101375.22;;;26.66;58.99
32320;BME280;19080;51.750;5.888;2023-07-08T06:47:45;101393.81;;;26.98;57.02
32320;BME280;19080;51.750;5.888;2023-07-08T06:50:12;101395.94;;;26.90;58.08
32320;BME280;19080;51.750;5.888;2023-07-08T06:52:39;101399.66;;;27.30;56.32
32320;BME280;19080;51.750;5.888;2023-07-08T06:55:08;101355.50;;;27.01;56.62
32320;BME280;19080;51.750;5.888;2023-07-08T06:57:35;101378.28;;;27.39;56.82
32320;BME280;19080;51.750;5.888;2023-07-08T07:00:08;101386.78;;;27.52;56.05
32320;BME280;19080;51.750;5.888;2023-07-08T07:02:36;101403.56;;;28.01;55.08
32320;BME280;19080;51.750;5.888;2023-07-08T07:05:03;101383.50;;;28.02;54.95
32320;BME280;19080;51.750;5.888;2023-07-08T07:07:30;101307.84;;;27.86;54.03
32320;BME280;19080;51.750;5.888;2023-07-08T07:09:57;101325.50;;;28.15;53.87
32320;BME280;19080;51.750;5.888;2023-07-08T07:12:24;101375.31;;;28.57;53.60
32320;BME280;19080;51.750;5.888;2023-07-08T07:14:51;101359.88;;;28.56;52.48
32320;BME280;19080;51.750;5.888;2023-07-08T07:17:21;101386.19;;;28.75;52.13
32320;BME280;19080;51.750;5.888;2023-07-08T07:19:49;101386.09;;;28.77;52.04
32320;BME280;19080;51.750;5.888;2023-07-08T07:22:15;101385.34;;;28.92;50.75
32320;BME280;19080;51.750;5.888;2023-07-08T07:24:42;101374.56;;;29.06;50.70
32320;BME280;19080;51.750;5.888;2023-07-08T07:27:09;101396.53;;;29.38;49.13
32320;BME280;19080;51.750;5.888;2023-07-08T07:29:45;101343.78;;;29.36;49.40
32320;BME280;19080;51.750;5.888;2023-07-08T07:32:12;101377.63;;;29.66;49.96
32320;BME280;19080;51.750;5.888;2023-07-08T07:34:41;101336.94;;;29.60;47.21
32320;BME280;19080;51.750;5.888;2023-07-08T07:37:12;101385.13;;;30.11;45.45
32320;BME280;19080;51.750;5.888;2023-07-08T07:39:40;101341.19;;;29.97;43.95
32320;BME280;19080;51.750;5.888;2023-07-08T07:42:08;101378.66;;;30.28;44.45
32320;BME280;19080;51.750;5.888;2023-07-08T07:44:35;101324.59;;;30.16;44.21
32320;BME280;19080;51.750;5.888;2023-07-08T07:47:02;101307.81;;;30.22;42.96
32320;BME280;19080;51.750;5.888;2023-07-08T07:49:30;101349.63;;;30.56;42.16
32320;BME280;19080;51.750;5.888;2023-07-08T07:51:57;101306.53;;;30.43;42.27
32320;BME280;19080;51.750;5.888;2023-07-08T07:54:23;101369.00;;;30.68;41.66
32320;BME280;19080;51.750;5.888;2023-07-08T07:56:51;101365.91;;;30.59;42.57
32320;BME280;19080;51.750;5.888;2023-07-08T07:59:18;101360.16;;;30.93;41.90
32320;BME280;19080;51.750;5.888;2023-07-08T08:01:44;101369.34;;;30.92;41.61
32320;BME280;19080;51.750;5.888;2023-07-08T08:04:11;101306.41;;;30.61;41.16
32320;BME280;19080;51.750;5.888;2023-07-08T08:06:38;101385.28;;;30.86;41.90
32320;BME280;19080;51.750;5.888;2023-07-08T08:09:06;101377.28;;;30.97;42.53
32320;BME280;19080;51.750;5.888;2023-07-08T08:11:33;101365.56;;;31.09;41.10
32320;BME280;19080;51.750;5.888;2023-07-08T08:14:01;101314.41;;;30.80;41.82
32320;BME280;19080;51.750;5.888;2023-07-08T08:16:27;101386.06;;;31.32;41.58
32320;BME280;19080;51.750;5.888;2023-07-08T08:18:54;101374.53;;;31.41;40.85
32320;BME280;19080;51.750;5.888;2023-07-08T08:21:21;101405.44;;;31.73;41.11
32320;BME280;19080;51.750;5.888;2023-07-08T08:23:48;101384.16;;;31.77;41.13
32320;BME280;19080;51.750;5.888;2023-07-08T08:26:14;101385.31;;;31.87;41.30
32320;BME280;19080;51.750;5.888;2023-07-08T08:28:41;101373.34;;;31.59;41.05
32320;BME280;19080;51.750;5.888;2023-07-08T08:31:08;101402.97;;;31.68;41.03
32320;BME280;19080;51.750;5.888;2023-07-08T08:33:35;101376.13;;;31.74;40.39
32320;BME280;19080;51.750;5.888;2023-07-08T08:36:01;101343.84;;;31.63;40.65
32320;BME280;19080;51.750;5.888;2023-07-08T08:38:29;101393.44;;;32.02;40.42
32320;BME280;19080;51.750;5.888;2023-07-08T08:40:55;101408.03;;;32.31;39.95
32320;BME280;19080;51.750;5.888;2023-07-08T08:43:30;101382.50;;;32.29;39.61
32320;BME280;19080;51.750;5.888;2023-07-08T08:49:05;101379.44;;;32.34;40.35
32320;BME280;19080;51.750;5.888;2023-07-08T08:51:33;101390.22;;;32.37;40.85
32320;BME280;19080;51.750;5.888;2023-07-08T08:54:00;101386.44;;;32.79;39.42
32320;BME280;19080;51.750;5.888;2023-07-08T08:56:31;101409.56;;;33.02;39.38
32320;BME280;19080;51.750;5.888;2023-07-08T08:59:12;101412.47;;;33.26;38.10
32320;BME280;19080;51.750;5.888;2023-07-08T09:01:44;101407.44;;;33.45;39.33
32320;BME280;19080;51.750;5.888;2023-07-08T09:04:17;101384.09;;;33.63;38.03
32320;BME280;19080;51.750;5.888;2023-07-08T09:06:46;101387.91;;;33.99;38.13
32320;BME280;19080;51.750;5.888;2023-07-08T09:09:18;101378.13;;;33.95;37.09
32320;BME280;19080;51.750;5.888;2023-07-08T09:11:58;101369.69;;;34.09;36.59
32320;BME280;19080;51.750;5.888;2023-07-08T09:14:31;101380.91;;;34.32;36.17
32320;BME280;19080;51.750;5.888;2023-07-08T09:17:14;101397.34;;;34.68;35.51
32320;BME280;19080;51.750;5.888;2023-07-08T09:20:22;101390.28;;;34.53;35.96
32320;BME280;19080;51.750;5.888;2023-07-08T09:23:01;101403.38;;;34.25;35.82
32320;BME280;19080;51.750;5.888;2023-07-08T09:25:33;101379.91;;;33.83;36.10
32320;BME280;19080;51.750;5.888;2023-07-08T09:28:02;101329.69;;;33.54;36.77
32320;BME280;19080;51.750;5.888;2023-07-08T09:30:29;101335.56;;;33.37;37.88
32320;BME280;19080;51.750;5.888;2023-07-08T09:32:57;101399.66;;;34.14;37.10
32320;BME280;19080;51.750;5.888;2023-07-08T09:35:38;101396.69;;;34.53;36.19
32320;BME280;19080;51.750;5.888;2023-07-08T09:38:15;101395.59;;;34.91;35.77
32320;BME280;19080;51.750;5.888;2023-07-08T09:40:50;101392.72;;;34.92;35.72
32320;BME280;19080;51.750;5.888;2023-07-08T09:43:30;101397.03;;;35.08;35.47
32320;BME280;19080;51.750;5.888;2023-07-08T09:46:00;101402.19;;;36.03;34.04
32320;BME280;19080;51.750;5.888;2023-07-08T09:48:29;101404.59;;;36.51;32.99
32320;BME280;19080;51.750;5.888;2023-07-08T09:50:57;101388.84;;;36.08;32.93
32320;BME280;19080;51.750;5.888;2023-07-08T09:53:25;101394.28;;;35.88;32.55
32320;BME280;19080;51.750;5.888;2023-07-08T09:55:54;101395.63;;;35.71;33.21
32320;BME280;19080;51.750;5.888;2023-07-08T09:58:32;101404.19;;;35.90;32.80
32320;BME280;19080;51.750;5.888;2023-07-08T10:01:05;101376.41;;;36.14;32.96
32320;BME280;19080;51.750;5.888;2023-07-08T10:03:35;101402.66;;;36.31;32.74
32320;BME280;19080;51.750;5.888;2023-07-08T10:06:17;101408.94;;;35.43;33.14
32320;BME280;19080;51.750;5.888;2023-07-08T10:08:44;101401.41;;;35.10;33.36
32320;BME280;19080;51.750;5.888;2023-07-08T10:11:25;101401.28;;;35.58;32.75
32320;BME280;19080;51.750;5.888;2023-07-08T10:13:54;101347.94;;;35.80;33.11
32320;BME280;19080;51.750;5.888;2023-07-08T10:16:39;101371.19;;;36.43;32.30
32320;BME280;19080;51.750;5.888;2023-07-08T10:19:16;101392.44;;;36.74;32.11
32320;BME280;19080;51.750;5.888;2023-07-08T10:27:00;101377.00;;;37.25;31.39
32320;BME280;19080;51.750;5.888;2023-07-08T10:32:28;101385.66;;;37.92;30.22
32320;BME280;19080;51.750;5.888;2023-07-08T10:35:12;101367.34;;;38.10;29.73
32320;BME280;19080;51.750;5.888;2023-07-08T10:37:53;101360.66;;;38.42;29.58
32320;BME280;19080;51.750;5.888;2023-07-08T10:40:47;101346.97;;;38.60;28.78
32320;BME280;19080;51.750;5.888;2023-07-08T10:45:53;101377.09;;;39.03;29.40
32320;BME280;19080;51.750;5.888;2023-07-08T10:56:42;101371.63;;;39.77;28.73
32320;BME280;19080;51.750;5.888;2023-07-08T11:07:40;101349.22;;;40.51;26.46
32320;BME280;19080;51.750;5.888;2023-07-08T11:10:23;101344.38;;;40.36;26.16
32320;BME280;19080;51.750;5.888;2023-07-08T11:13:03;101365.00;;;40.33;25.65
32320;BME280;19080;51.750;5.888;2023-07-08T11:15:44;101366.25;;;40.48;26.72
32320;BME280;19080;51.750;5.888;2023-07-08T11:18:17;101369.91;;;40.67;25.96
32320;BME280;19080;51.750;5.888;2023-07-08T11:20:55;101354.00;;;40.41;25.74
32320;BME280;19080;51.750;5.888;2023-07-08T11:23:44;101342.78;;;40.06;25.44
32320;BME280;19080;51.750;5.888;2023-07-08T11:26:22;101350.47;;;40.75;25.49
32320;BME280;19080;51.750;5.888;2023-07-08T11:28:53;101349.50;;;41.19;24.91
32320;BME280;19080;51.750;5.888;2023-07-08T11:31:24;101332.78;;;41.19;23.92
32320;BME280;19080;51.750;5.888;2023-07-08T11:33:52;101348.34;;;41.56;25.35
32320;BME280;19080;51.750;5.888;2023-07-08T11:36:21;101365.84;;;42.08;25.63
32320;BME280;19080;51.750;5.888;2023-07-08T11:38:50;101355.38;;;42.02;24.45
32320;BME280;19080;51.750;5.888;2023-07-08T11:41:19;101344.44;;;42.17;24.13
32320;BME280;19080;51.750;5.888;2023-07-08T11:43:50;101312.38;;;41.79;23.24
32320;BME280;19080;51.750;5.888;2023-07-08T11:46:20;101363.03;;;41.66;23.78
32320;BME280;19080;51.750;5.888;2023-07-08T11:48:50;101266.22;;;41.16;23.57
32320;BME280;19080;51.750;5.888;2023-07-08T11:51:24;101365.47;;;41.69;23.23
32320;BME280;19080;51.750;5.888;2023-07-08T11:56:58;101332.97;;;42.36;23.26
32320;BME280;19080;51.750;5.888;2023-07-08T11:59:33;101325.97;;;42.32;22.96
32320;BME280;19080;51.750;5.888;2023-07-08T12:02:11;101304.34;;;42.34;22.48
32320;BME280;19080;51.750;5.888;2023-07-08T12:04:58;101300.91;;;41.90;23.32
32320;BME280;19080;51.750;5.888;2023-07-08T12:07:37;101298.28;;;41.88;22.82
32320;BME280;19080;51.750;5.888;2023-07-08T12:10:18;101347.72;;;42.87;23.82
32320;BME280;19080;51.750;5.888;2023-07-08T12:12:46;101322.22;;;42.98;21.63
32320;BME280;19080;51.750;5.888;2023-07-08T12:15:27;101299.81;;;43.23;22.85
32320;BME280;19080;51.750;5.888;2023-07-08T12:18:13;101330.41;;;43.16;21.68
32320;BME280;19080;51.750;5.888;2023-07-08T12:20:41;101327.81;;;42.98;21.72
32320;BME280;19080;51.750;5.888;2023-07-08T12:23:14;101343.94;;;43.43;20.79
32320;BME280;19080;51.750;5.888;2023-07-08T12:25:41;101285.78;;;43.39;20.71
32320;BME280;19080;51.750;5.888;2023-07-08T12:28:09;101343.88;;;43.76;20.61
32320;BME280;19080;51.750;5.888;2023-07-08T12:30:36;101289.84;;;43.75;20.86
32320;BME280;19080;51.750;5.888;2023-07-08T12:33:02;101311.03;;;44.09;20.78
32320;BME280;19080;51.750;5.888;2023-07-08T12:35:35;101273.75;;;43.77;19.82
32320;BME280;19080;51.750;5.888;2023-07-08T12:38:18;101316.63;;;44.09;20.40
32320;BME280;19080;51.750;5.888;2023-07-08T12:40:46;101276.91;;;43.74;20.46
32320;BME280;19080;51.750;5.888;2023-07-08T12:43:14;101304.84;;;43.82;20.59
32320;BME280;19080;51.750;5.888;2023-07-08T12:45:42;101318.16;;;43.80;20.67
32320;BME280;19080;51.750;5.888;2023-07-08T12:48:08;101296.66;;;44.12;20.18
32320;BME280;19080;51.750;5.888;2023-07-08T12:50:36;101287.66;;;43.94;20.21
32320;BME280;19080;51.750;5.888;2023-07-08T12:53:04;101304.50;;;43.86;19.77
32320;BME280;19080;51.750;5.888;2023-07-08T12:55:37;101301.50;;;43.87;19.36
32320;BME280;19080;51.750;5.888;2023-07-08T12:58:05;101307.81;;;44.20;19.49
32320;BME280;19080;51.750;5.888;2023-07-08T13:00:37;101300.78;;;43.93;20.73
32320;BME280;19080;51.750;5.888;2023-07-08T13:03:13;101295.72;;;43.89;19.84
32320;BME280;19080;51.750;5.888;2023-07-08T13:05:42;101279.63;;;43.91;20.43
32320;BME280;19080;51.750;5.888;2023-07-08T13:08:21;101226.41;;;43.99;19.27
32320;BME280;19080;51.750;5.888;2023-07-08T13:10:51;101279.41;;;44.54;19.77
32320;BME280;19080;51.750;5.888;2023-07-08T13:13:24;101237.50;;;44.98;19.05
32320;BME280;19080;51.750;5.888;2023-07-08T13:15:52;101294.53;;;45.35;19.30
32320;BME280;19080;51.750;5.888;2023-07-08T13:20:59;101283.22;;;44.99;18.36
32320;BME280;19080;51.750;5.888;2023-07-08T13:23:27;101256.81;;;45.08;18.16
32320;BME280;19080;51.750;5.888;2023-07-08T13:25:54;101298.59;;;45.32;19.18
32320;BME280;19080;51.750;5.888;2023-07-08T13:28:27;101281.69;;;44.73;19.09
32320;BME280;19080;51.750;5.888;2023-07-08T13:30:56;101265.63;;;44.22;19.64
32320;BME280;19080;51.750;5.888;2023-07-08T13:33:23;101279.38;;;44.31;19.23
32320;BME280;19080;51.750;5.888;2023-07-08T13:35:51;101245.84;;;44.23;19.02
32320;BME280;19080;51.750;5.888;2023-07-08T13:38:21;101298.06;;;44.39;19.59
32320;BME280;19080;51.750;5.888;2023-07-08T13:41:00;101306.09;;;44.65;18.65
32320;BME280;19080;51.750;5.888;2023-07-08T13:43:32;101250.03;;;44.50;18.96
32320;BME280;19080;51.750;5.888;2023-07-08T13:46:00;101297.25;;;44.76;18.78
32320;BME280;19080;51.750;5.888;2023-07-08T13:51:06;101297.41;;;45.12;18.70